Time;durP1;ratioP1;P1;durP2;ratioP2;P2;SDS_P1;SDS_P2;PMS_P1;PMS_P2;Temp;Humidity;BMP_temperature;BMP_pressure;BME280_temperature;BME280_humidity;BME280_pressure;Samples;Min_cycle;Max_cycle;Signal;HPM_P1;HPM_P2
2023/12/30 00:01:10;;;;;;;0.77;0.77;;;;;;;;;;5018293;28;20061;-86
2023/12/30 00:03:39;;;;;;;1.25;0.90;;;;;;;;;;5025937;28;20052;-86
2023/12/30 00:06:08;;;;;;;0.90;0.80;;;;;;;;;;5023369;28;20549;-86
2023/12/30 00:08:37;;;;;;;0.65;0.63;;;;;;;;;;5025600;28;20050;-85
2023/12/30 00:11:06;;;;;;;0.73;0.70;;;;;;;;;;5020291;28;20107;-86
2023/12/30 00:13:34;;;;;;;0.60;0.60;;;;;;;;;;5023182;28;20050;-86
2023/12/30 00:16:04;;;;;;;0.75;0.70;;;;;;;;;;5018647;28;20152;-86
2023/12/30 00:18:32;;;;;;;0.68;0.68;;;;;;;;;;5024861;28;20052;-86
2023/12/30 00:21:01;;;;;;;2.97;1.33;;;;;;;;;;5021874;28;20050;-86
2023/12/30 00:23:30;;;;;;;1.95;0.60;;;;;;;;;;5019104;28;20061;-86
2023/12/30 00:26:10;;;;;;;0.52;0.52;;;;;;;;;;5025145;28;20049;-86
2023/12/30 00:28:39;;;;;;;0.80;0.80;;;;;;;;;;5021301;28;20056;-86
2023/12/30 00:31:08;;;;;;;0.60;0.60;;;;;;;;;;5018338;28;20068;-86
2023/12/30 00:33:37;;;;;;;0.60;0.60;;;;;;;;;;5018767;28;20077;-86
2023/12/30 00:36:06;;;;;;;1.60;0.80;;;;;;;;;;5023885;28;20050;-86
2023/12/30 00:38:34;;;;;;;1.02;0.80;;;;;;;;;;5023024;28;20057;-85
2023/12/30 00:41:03;;;;;;;0.63;0.63;;;;;;;;;;5026794;28;20112;-86
2023/12/30 00:43:31;;;;;;;0.65;0.65;;;;;;;;;;5023801;28;20061;-86
2023/12/30 00:46:00;;;;;;;0.70;0.70;;;;;;;;;;5019404;28;20073;-85
2023/12/30 00:48:31;;;;;;;0.60;0.60;;;;;;;;;;5024952;28;20056;-85
2023/12/30 00:51:00;;;;;;;1.27;0.90;;;;;;;;;;5018825;28;20053;-86
2023/12/30 00:53:28;;;;;;;0.60;0.60;;;;;;;;;;5019190;28;20124;-86
2023/12/30 00:55:57;;;;;;;0.60;0.60;;;;;;;;;;5023918;28;20076;-85
2023/12/30 00:58:26;;;;;;;0.75;0.70;;;;;;;;;;5022036;28;20095;-85
2023/12/30 01:00:54;;;;;;;0.80;0.80;;;;;;;;;;5021812;28;20136;-86
2023/12/30 01:03:23;;;;;;;0.68;0.68;;;;;;;;;;5020059;28;20042;-86
2023/12/30 01:05:53;;;;;;;1.25;0.70;;;;;;;;;;5017949;28;20057;-86
2023/12/30 01:08:23;;;;;;;1.40;0.70;;;;;;;;;;5019222;28;20439;-86
2023/12/30 01:10:51;;;;;;;1.25;0.70;;;;;;;;;;5023622;28;20050;-86
2023/12/30 01:13:20;;;;;;;0.70;0.70;;;;;;;;;;5018633;28;20414;-86
2023/12/30 01:15:48;;;;;;;3.28;0.70;;;;;;;;;;5025456;28;20053;-86
2023/12/30 01:18:17;;;;;;;0.60;0.60;;;;;;;;;;5023666;28;20053;-86
2023/12/30 01:20:45;;;;;;;1.00;0.70;;;;;;;;;;5020486;28;20372;-86
2023/12/30 01:23:15;;;;;;;0.60;0.60;;;;;;;;;;5021638;28;20103;-86
2023/12/30 01:25:44;;;;;;;0.70;0.70;;;;;;;;;;5018037;28;20123;-85
2023/12/30 01:28:12;;;;;;;0.70;0.70;;;;;;;;;;5023871;28;20046;-85
2023/12/30 01:30:41;;;;;;;0.60;0.60;;;;;;;;;;5023648;28;20057;-86
2023/12/30 01:33:10;;;;;;;0.50;0.50;;;;;;;;;;5018495;28;20509;-86
2023/12/30 01:35:39;;;;;;;1.00;0.70;;;;;;;;;;5017935;28;20395;-86
2023/12/30 01:38:07;;;;;;;1.38;0.80;;;;;;;;;;5022689;28;20080;-86
2023/12/30 01:40:37;;;;;;;1.67;0.60;;;;;;;;;;5021955;28;20077;-85
2023/12/30 01:43:06;;;;;;;0.70;0.60;;;;;;;;;;5017915;28;20514;-86
2023/12/30 01:45:35;;;;;;;0.75;0.75;;;;;;;;;;5018177;28;20109;-85
2023/12/30 01:48:05;;;;;;;0.60;0.60;;;;;;;;;;5021222;28;20041;-86
2023/12/30 01:50:33;;;;;;;2.10;0.63;;;;;;;;;;5018276;28;20541;-85
2023/12/30 01:53:02;;;;;;;0.70;0.70;;;;;;;;;;5022747;28;20076;-85
2023/12/30 01:55:31;;;;;;;3.35;0.80;;;;;;;;;;5021947;28;20124;-85
2023/12/30 01:58:01;;;;;;;0.57;0.57;;;;;;;;;;5018170;28;20049;-85
2023/12/30 02:00:30;;;;;;;0.70;0.70;;;;;;;;;;5017324;28;20137;-85
2023/12/30 02:02:58;;;;;;;0.80;0.80;;;;;;;;;;5022073;28;20053;-85
2023/12/30 02:05:29;;;;;;;1.75;0.80;;;;;;;;;;5018857;28;20050;-85
2023/12/30 02:07:58;;;;;;;1.23;0.90;;;;;;;;;;5019018;28;20132;-86
2023/12/30 02:10:26;;;;;;;0.80;0.80;;;;;;;;;;5022735;28;20137;-86
2023/12/30 02:12:55;;;;;;;0.70;0.70;;;;;;;;;;5021233;28;20617;-86
2023/12/30 02:15:25;;;;;;;0.98;0.90;;;;;;;;;;5024219;28;20541;-85
2023/12/30 02:17:56;;;;;;;0.63;0.60;;;;;;;;;;5015755;28;20117;-86
2023/12/30 02:20:25;;;;;;;0.63;0.63;;;;;;;;;;5023951;28;20054;-86
2023/12/30 02:22:54;;;;;;;0.82;0.80;;;;;;;;;;5023040;28;20112;-86
2023/12/30 02:25:23;;;;;;;1.05;0.90;;;;;;;;;;5021278;28;20563;-87
2023/12/30 02:27:52;;;;;;;1.17;1.05;;;;;;;;;;5021290;28;20049;-85
2023/12/30 02:30:21;;;;;;;0.73;0.73;;;;;;;;;;5024640;28;20046;-85
2023/12/30 02:32:49;;;;;;;1.10;1.00;;;;;;;;;;5021713;28;20104;-86
2023/12/30 02:35:18;;;;;;;1.05;0.90;;;;;;;;;;5023020;28;20046;-87
2023/12/30 02:37:47;;;;;;;0.80;0.80;;;;;;;;;;5017866;28;20050;-86
2023/12/30 02:40:16;;;;;;;0.80;0.80;;;;;;;;;;5018975;28;20100;-86
2023/12/30 02:42:45;;;;;;;1.05;0.80;;;;;;;;;;5022460;28;20057;-86
2023/12/30 02:45:14;;;;;;;1.00;0.90;;;;;;;;;;5020557;28;21292;-86
2023/12/30 02:47:42;;;;;;;1.13;1.00;;;;;;;;;;5020522;28;20415;-86
2023/12/30 02:50:11;;;;;;;1.77;0.98;;;;;;;;;;5022635;28;20056;-86
2023/12/30 02:52:40;;;;;;;0.82;0.82;;;;;;;;;;5020409;28;20073;-86
2023/12/30 02:55:08;;;;;;;1.10;1.00;;;;;;;;;;5020645;28;20049;-86
2023/12/30 02:57:38;;;;;;;1.17;0.70;;;;;;;;;;5020729;28;20049;-86
2023/12/30 03:00:18;;;;;;;0.90;0.70;;;;;;;;;;5016724;28;20449;-86
2023/12/30 03:02:47;;;;;;;0.80;0.80;;;;;;;;;;5019440;28;20065;-86
2023/12/30 03:05:15;;;;;;;0.80;0.80;;;;;;;;;;5018446;28;20057;-85
2023/12/30 03:07:44;;;;;;;1.00;0.90;;;;;;;;;;5015632;28;20068;-86
2023/12/30 03:10:13;;;;;;;0.98;0.82;;;;;;;;;;5016302;28;20499;-86
2023/12/30 03:12:43;;;;;;;0.85;0.70;;;;;;;;;;5020332;28;20049;-86
2023/12/30 03:15:11;;;;;;;0.75;0.73;;;;;;;;;;5019024;28;20466;-85
2023/12/30 03:17:40;;;;;;;1.35;1.10;;;;;;;;;;5020011;28;20042;-86
2023/12/30 03:20:10;;;;;;;1.05;0.90;;;;;;;;;;5016314;28;20048;-86
2023/12/30 03:22:39;;;;;;;1.30;0.80;;;;;;;;;;5018480;28;20041;-86
2023/12/30 03:25:07;;;;;;;1.08;0.98;;;;;;;;;;5015618;28;20164;-86
2023/12/30 03:27:36;;;;;;;2.25;1.08;;;;;;;;;;5015995;28;20084;-86
2023/12/30 03:30:06;;;;;;;1.02;0.88;;;;;;;;;;5017815;28;20050;-86
2023/12/30 03:32:35;;;;;;;0.73;0.70;;;;;;;;;;5018142;28;20558;-86
2023/12/30 03:35:04;;;;;;;2.05;1.10;;;;;;;;;;5017475;28;20050;-86
2023/12/30 03:37:32;;;;;;;1.75;0.80;;;;;;;;;;5019343;28;20502;-86
2023/12/30 03:40:01;;;;;;;0.70;0.70;;;;;;;;;;5026460;28;20049;-86
2023/12/30 03:42:29;;;;;;;2.88;1.05;;;;;;;;;;5023412;28;20454;-86
2023/12/30 03:44:58;;;;;;;1.73;1.05;;;;;;;;;;5020532;28;20049;-86
2023/12/30 03:47:28;;;;;;;1.70;0.95;;;;;;;;;;5021205;28;20052;-86
2023/12/30 03:49:56;;;;;;;2.40;1.02;;;;;;;;;;5019165;28;20137;-87
2023/12/30 03:52:24;;;;;;;1.10;1.00;;;;;;;;;;5023169;28;20053;-86
2023/12/30 03:54:55;;;;;;;1.33;1.00;;;;;;;;;;5024438;28;20148;-86
2023/12/30 03:57:24;;;;;;;1.25;1.00;;;;;;;;;;5022453;28;20056;-86
2023/12/30 03:59:52;;;;;;;1.10;1.00;;;;;;;;;;5025725;28;20054;-87
2023/12/30 04:02:21;;;;;;;2.30;0.93;;;;;;;;;;5024758;28;20049;-87
2023/12/30 04:04:51;;;;;;;1.30;1.20;;;;;;;;;;5026959;28;20045;-86
2023/12/30 04:07:19;;;;;;;1.88;1.00;;;;;;;;;;5023628;28;20050;-87
2023/12/30 04:09:48;;;;;;;2.55;1.58;;;;;;;;;;5027162;28;20050;-87
2023/12/30 04:12:16;;;;;;;5.53;1.73;;;;;;;;;;5024159;28;20418;-87
2023/12/30 04:14:45;;;;;;;3.05;1.60;;;;;;;;;;5019325;28;20095;-86
2023/12/30 04:17:14;;;;;;;1.80;1.15;;;;;;;;;;5018493;28;20054;-86
2023/12/30 04:19:42;;;;;;;2.47;1.52;;;;;;;;;;5020886;28;20042;-86
2023/12/30 04:22:12;;;;;;;1.70;1.17;;;;;;;;;;5025795;28;20042;-87
2023/12/30 04:24:41;;;;;;;1.65;1.15;;;;;;;;;;5021857;28;20089;-87
2023/12/30 04:27:09;;;;;;;1.75;1.20;;;;;;;;;;5026261;28;20084;-86
2023/12/30 04:29:37;;;;;;;1.05;0.85;;;;;;;;;;5018916;28;20041;-85
2023/12/30 04:32:06;;;;;;;2.35;0.90;;;;;;;;;;5023614;28;20414;-86
2023/12/30 04:34:35;;;;;;;1.10;1.00;;;;;;;;;;5025650;28;20565;-86
2023/12/30 04:37:04;;;;;;;1.15;0.88;;;;;;;;;;5019834;28;20060;-85
2023/12/30 04:39:34;;;;;;;1.25;1.10;;;;;;;;;;5023350;28;20318;-85
2023/12/30 04:42:03;;;;;;;1.13;1.02;;;;;;;;;;5019004;28;20287;-86
2023/12/30 04:44:31;;;;;;;1.30;0.85;;;;;;;;;;5026412;28;20400;-86
2023/12/30 04:47:00;;;;;;;1.15;0.93;;;;;;;;;;5024914;28;20134;-85
2023/12/30 04:49:28;;;;;;;1.55;1.13;;;;;;;;;;5023469;28;20057;-85
2023/12/30 04:51:57;;;;;;;1.30;1.00;;;;;;;;;;5023682;28;20064;-85
2023/12/30 04:54:26;;;;;;;1.27;0.93;;;;;;;;;;5023077;28;20049;-86
2023/12/30 04:56:58;;;;;;;1.10;0.88;;;;;;;;;;5019550;28;20065;-85
2023/12/30 04:59:27;;;;;;;1.75;0.90;;;;;;;;;;5018941;28;20045;-85
2023/12/30 05:01:56;;;;;;;2.67;1.00;;;;;;;;;;5019097;28;20061;-86
2023/12/30 05:04:24;;;;;;;0.60;0.60;;;;;;;;;;5024258;28;20049;-85
2023/12/30 05:06:53;;;;;;;0.60;0.60;;;;;;;;;;5021722;28;20046;-86
2023/12/30 05:09:21;;;;;;;1.83;1.10;;;;;;;;;;5017237;28;20049;-86
2023/12/30 05:11:50;;;;;;;0.85;0.82;;;;;;;;;;5020293;28;20053;-85
2023/12/30 05:14:20;;;;;;;1.77;0.80;;;;;;;;;;5022402;28;20053;-86
2023/12/30 05:16:48;;;;;;;1.67;0.80;;;;;;;;;;5017677;28;20093;-86
2023/12/30 05:19:17;;;;;;;1.25;0.88;;;;;;;;;;5019509;28;20057;-86
2023/12/30 05:21:50;;;;;;;0.98;0.80;;;;;;;;;;5024059;28;20049;-86
2023/12/30 05:24:19;;;;;;;0.88;0.82;;;;;;;;;;5022480;28;20107;-86
2023/12/30 05:26:48;;;;;;;0.70;0.70;;;;;;;;;;5024417;28;20053;-86
2023/12/30 05:29:17;;;;;;;0.80;0.80;;;;;;;;;;5016082;28;20660;-86
2023/12/30 05:31:47;;;;;;;0.57;0.57;;;;;;;;;;5020579;28;20061;-86
2023/12/30 05:34:15;;;;;;;0.88;0.70;;;;;;;;;;5023037;28;20136;-86
2023/12/30 05:36:44;;;;;;;0.73;0.63;;;;;;;;;;5018555;28;20049;-86
2023/12/30 05:39:14;;;;;;;0.63;0.63;;;;;;;;;;5023927;28;20054;-86
2023/12/30 05:41:43;;;;;;;0.82;0.70;;;;;;;;;;5022003;28;20491;-85
2023/12/30 05:44:11;;;;;;;0.60;0.60;;;;;;;;;;5019027;28;20422;-85
2023/12/30 05:46:40;;;;;;;1.35;0.80;;;;;;;;;;5019899;28;20377;-85
2023/12/30 05:49:10;;;;;;;1.58;0.90;;;;;;;;;;5017812;28;20057;-85
2023/12/30 05:51:42;;;;;;;0.63;0.60;;;;;;;;;;5021190;28;20060;-86
2023/12/30 05:54:11;;;;;;;0.73;0.70;;;;;;;;;;5018574;28;20450;-86
2023/12/30 05:56:39;;;;;;;0.75;0.75;;;;;;;;;;5022835;28;20493;-86
2023/12/30 05:59:08;;;;;;;1.63;0.73;;;;;;;;;;5023336;28;20046;-86
2023/12/30 06:01:43;;;;;;;0.85;0.80;;;;;;;;;;5017277;28;20087;-86
2023/12/30 06:04:13;;;;;;;0.68;0.68;;;;;;;;;;5023519;28;20046;-85
2023/12/30 06:06:42;;;;;;;0.80;0.75;;;;;;;;;;5018584;28;20637;-85
2023/12/30 06:09:11;;;;;;;0.95;0.82;;;;;;;;;;5018825;28;20049;-86
2023/12/30 06:11:40;;;;;;;1.13;0.60;;;;;;;;;;5017350;28;20491;-85
2023/12/30 06:14:08;;;;;;;1.52;0.85;;;;;;;;;;5017357;28;20050;-85
2023/12/30 06:16:37;;;;;;;0.80;0.75;;;;;;;;;;5016264;28;20053;-86
2023/12/30 06:19:06;;;;;;;0.85;0.80;;;;;;;;;;5017037;28;20046;-86
2023/12/30 06:21:36;;;;;;;0.90;0.80;;;;;;;;;;5023524;28;20578;-87
2023/12/30 06:24:05;;;;;;;1.55;1.00;;;;;;;;;;5017759;28;20058;-86
2023/12/30 06:26:37;;;;;;;1.05;0.70;;;;;;;;;;5018307;28;20410;-86
2023/12/30 06:29:06;;;;;;;1.02;0.88;;;;;;;;;;5020388;28;20045;-86
2023/12/30 06:31:35;;;;;;;0.80;0.80;;;;;;;;;;5020663;28;20529;-87
2023/12/30 06:34:03;;;;;;;0.85;0.80;;;;;;;;;;5017257;28;20061;-86
2023/12/30 06:36:32;;;;;;;1.38;0.70;;;;;;;;;;5017076;28;20117;-87
2023/12/30 06:39:01;;;;;;;1.50;1.15;;;;;;;;;;5022406;28;20458;-86
2023/12/30 06:41:30;;;;;;;4.78;1.10;;;;;;;;;;5016636;28;20041;-86
2023/12/30 06:43:58;;;;;;;1.17;1.00;;;;;;;;;;5020540;28;20415;-85
2023/12/30 06:46:27;;;;;;;1.27;1.02;;;;;;;;;;5022546;28;20045;-86
2023/12/30 06:48:55;;;;;;;1.92;1.20;;;;;;;;;;5022209;28;20045;-85
2023/12/30 06:51:24;;;;;;;2.15;1.23;;;;;;;;;;5021923;28;20076;-86
2023/12/30 06:53:52;;;;;;;0.90;0.90;;;;;;;;;;5019586;28;20053;-86
2023/12/30 06:56:22;;;;;;;1.13;1.00;;;;;;;;;;5017789;28;20092;-87
2023/12/30 06:58:51;;;;;;;3.10;1.40;;;;;;;;;;5021602;28;20050;-86
2023/12/30 07:01:20;;;;;;;2.17;1.40;;;;;;;;;;5016596;28;20379;-86
2023/12/30 07:03:49;;;;;;;1.50;1.20;;;;;;;;;;5022095;28;20045;-86
2023/12/30 07:06:18;;;;;;;1.20;1.10;;;;;;;;;;5017113;28;20347;-87
2023/12/30 07:08:47;;;;;;;2.53;1.30;;;;;;;;;;5022218;28;20067;-86
2023/12/30 07:11:15;;;;;;;2.50;1.50;;;;;;;;;;5019868;28;20574;-86
2023/12/30 07:13:45;;;;;;;2.92;1.38;;;;;;;;;;5021306;28;20136;-86
2023/12/30 07:16:15;;;;;;;2.20;1.40;;;;;;;;;;5021712;28;20064;-86
2023/12/30 07:18:44;;;;;;;1.35;1.13;;;;;;;;;;5020228;28;20050;-86
2023/12/30 07:21:12;;;;;;;1.20;1.00;;;;;;;;;;5023647;28;20037;-86
2023/12/30 07:23:43;;;;;;;1.70;1.33;;;;;;;;;;5022134;28;20047;-87
2023/12/30 07:26:11;;;;;;;1.40;1.13;;;;;;;;;;5022293;28;20082;-87
2023/12/30 07:28:40;;;;;;;2.40;1.20;;;;;;;;;;5023379;28;20076;-84
2023/12/30 07:31:10;;;;;;;3.15;1.25;;;;;;;;;;5020037;28;20124;-85
2023/12/30 07:33:38;;;;;;;1.48;1.20;;;;;;;;;;5019943;28;20061;-86
2023/12/30 07:36:07;;;;;;;2.30;1.20;;;;;;;;;;5017097;28;20062;-86
2023/12/30 07:38:36;;;;;;;3.58;1.52;;;;;;;;;;5016572;28;20050;-86
2023/12/30 07:41:04;;;;;;;2.03;1.27;;;;;;;;;;5015923;28;20483;-85
2023/12/30 07:43:33;;;;;;;1.45;1.23;;;;;;;;;;5019354;28;20089;-85
2023/12/30 07:46:01;;;;;;;1.30;1.20;;;;;;;;;;5016363;28;20085;-86
2023/12/30 07:48:31;;;;;;;3.75;1.33;;;;;;;;;;5020425;28;20053;-86
2023/12/30 07:51:00;;;;;;;1.98;1.38;;;;;;;;;;5020793;28;20056;-85
2023/12/30 07:53:29;;;;;;;1.40;1.20;;;;;;;;;;5019913;28;20053;-86
2023/12/30 07:55:57;;;;;;;1.50;1.20;;;;;;;;;;5016956;28;20054;-86
2023/12/30 07:58:26;;;;;;;3.72;1.20;;;;;;;;;;5015058;28;20058;-86
2023/12/30 08:00:54;;;;;;;1.80;1.30;;;;;;;;;;5021447;28;20053;-86
2023/12/30 08:03:23;;;;;;;1.55;1.42;;;;;;;;;;5021968;28;20061;-86
2023/12/30 08:05:52;;;;;;;1.85;1.10;;;;;;;;;;5017866;28;20561;-86
2023/12/30 08:08:21;;;;;;;2.65;1.20;;;;;;;;;;5020220;28;20046;-87
2023/12/30 08:10:49;;;;;;;1.88;1.25;;;;;;;;;;5021378;28;20062;-86
2023/12/30 08:13:18;;;;;;;1.48;1.00;;;;;;;;;;5018625;28;20450;-85
2023/12/30 08:15:46;;;;;;;1.20;1.10;;;;;;;;;;5016242;28;20057;-86
2023/12/30 08:18:15;;;;;;;1.80;1.30;;;;;;;;;;5017127;28;20053;-86
2023/12/30 08:20:44;;;;;;;2.35;1.10;;;;;;;;;;5022789;28;20050;-86
2023/12/30 08:23:13;;;;;;;1.30;1.20;;;;;;;;;;5018600;28;20061;-86
2023/12/30 08:25:42;;;;;;;2.95;1.30;;;;;;;;;;5024175;28;20056;-86
2023/12/30 08:28:10;;;;;;;1.67;1.23;;;;;;;;;;5022254;28;20133;-86
2023/12/30 08:30:39;;;;;;;1.45;1.17;;;;;;;;;;5018633;28;20052;-86
2023/12/30 08:33:09;;;;;;;1.83;1.48;;;;;;;;;;5024694;28;20553;-87
2023/12/30 08:35:38;;;;;;;1.48;1.05;;;;;;;;;;5026211;28;20050;-86
2023/12/30 08:38:07;;;;;;;1.55;1.17;;;;;;;;;;5017341;28;20544;-86
2023/12/30 08:40:36;;;;;;;1.83;1.45;;;;;;;;;;5017939;28;20777;-86
2023/12/30 08:43:06;;;;;;;1.25;0.90;;;;;;;;;;5023412;28;20494;-86
2023/12/30 08:45:35;;;;;;;2.75;1.10;;;;;;;;;;5021449;28;20049;-87
2023/12/30 08:48:03;;;;;;;0.90;0.90;;;;;;;;;;5024369;28;20542;-86
2023/12/30 08:50:32;;;;;;;1.25;1.02;;;;;;;;;;5024837;28;20054;-85
2023/12/30 08:53:01;;;;;;;1.75;0.88;;;;;;;;;;5020969;28;20062;-86
2023/12/30 08:55:29;;;;;;;1.38;1.13;;;;;;;;;;5021457;28;20041;-85
2023/12/30 08:57:59;;;;;;;1.27;1.00;;;;;;;;;;5019598;28;20058;-85
2023/12/30 09:00:28;;;;;;;2.25;1.30;;;;;;;;;;5024272;28;20049;-85
2023/12/30 09:02:57;;;;;;;1.23;0.90;;;;;;;;;;5022136;28;20050;-85
2023/12/30 09:05:26;;;;;;;2.15;0.93;;;;;;;;;;5020960;28;20473;-85
2023/12/30 09:07:55;;;;;;;0.68;0.68;;;;;;;;;;5017440;28;20128;-85
2023/12/30 09:10:23;;;;;;;1.15;0.73;;;;;;;;;;5024495;28;20045;-86
2023/12/30 09:12:51;;;;;;;1.10;0.90;;;;;;;;;;5021502;28;20337;-86
2023/12/30 09:15:21;;;;;;;4.35;1.00;;;;;;;;;;5022534;28;20498;-87
2023/12/30 09:17:50;;;;;;;1.85;0.80;;;;;;;;;;5024476;28;20045;-87
2023/12/30 09:20:18;;;;;;;1.55;1.00;;;;;;;;;;5017309;28;20140;-86
2023/12/30 09:22:47;;;;;;;1.15;0.85;;;;;;;;;;5018030;28;20050;-86
2023/12/30 09:25:15;;;;;;;0.75;0.70;;;;;;;;;;5016888;28;20064;-86
2023/12/30 09:27:44;;;;;;;0.85;0.80;;;;;;;;;;5022929;28;20104;-86
2023/12/30 09:30:15;;;;;;;0.95;0.90;;;;;;;;;;5017441;28;20096;-86
2023/12/30 09:32:45;;;;;;;1.17;0.80;;;;;;;;;;5020281;28;20046;-87
2023/12/30 09:35:14;;;;;;;1.40;0.93;;;;;;;;;;5016404;28;20048;-86
2023/12/30 09:37:43;;;;;;;2.67;0.90;;;;;;;;;;5016074;28;20045;-87
2023/12/30 09:40:11;;;;;;;0.77;0.73;;;;;;;;;;5016945;28;20049;-86
2023/12/30 09:42:40;;;;;;;0.90;0.82;;;;;;;;;;5022602;28;20129;-86
2023/12/30 09:45:09;;;;;;;0.73;0.73;;;;;;;;;;5023182;28;20041;-87
2023/12/30 09:47:39;;;;;;;0.68;0.60;;;;;;;;;;5023385;28;20054;-86
2023/12/30 09:50:09;;;;;;;1.23;0.95;;;;;;;;;;5017859;28;20050;-86
2023/12/30 09:52:38;;;;;;;0.70;0.70;;;;;;;;;;5018365;28;20092;-86
2023/12/30 09:55:07;;;;;;;1.02;0.80;;;;;;;;;;5020089;28;20045;-86
2023/12/30 09:57:36;;;;;;;0.90;0.70;;;;;;;;;;5015852;28;20418;-86
2023/12/30 10:00:05;;;;;;;1.33;0.95;;;;;;;;;;5017578;28;20053;-86
2023/12/30 10:02:34;;;;;;;1.10;0.68;;;;;;;;;;5023293;28;20150;-86
2023/12/30 10:05:02;;;;;;;0.57;0.57;;;;;;;;;;5016683;28;20046;-85
2023/12/30 10:07:34;;;;;;;0.80;0.80;;;;;;;;;;5021963;28;20058;-86
2023/12/30 10:10:02;;;;;;;0.80;0.73;;;;;;;;;;5018758;28;20057;-86
2023/12/30 10:12:31;;;;;;;1.40;0.60;;;;;;;;;;5017151;28;20508;-86
2023/12/30 10:14:59;;;;;;;0.70;0.70;;;;;;;;;;5018470;28;20050;-86
2023/12/30 10:17:28;;;;;;;0.68;0.63;;;;;;;;;;5020244;28;20617;-86
2023/12/30 10:19:56;;;;;;;0.77;0.70;;;;;;;;;;5016375;28;20042;-86
2023/12/30 10:22:25;;;;;;;0.80;0.60;;;;;;;;;;5023915;28;20453;-86
2023/12/30 10:24:54;;;;;;;0.77;0.63;;;;;;;;;;5018302;28;20041;-86
2023/12/30 10:27:23;;;;;;;0.73;0.70;;;;;;;;;;5020621;28;20050;-86
2023/12/30 10:29:55;;;;;;;0.60;0.60;;;;;;;;;;5021478;28;20049;-86
2023/12/30 10:32:29;;;;;;;1.08;0.60;;;;;;;;;;5021824;28;20053;-86
2023/12/30 10:34:57;;;;;;;1.50;0.75;;;;;;;;;;5020432;28;20053;-86
2023/12/30 10:37:26;;;;;;;0.65;0.60;;;;;;;;;;5022249;28;20042;-86
2023/12/30 10:39:56;;;;;;;0.73;0.60;;;;;;;;;;5016970;28;20049;-86
2023/12/30 10:42:25;;;;;;;0.63;0.55;;;;;;;;;;5019581;28;20049;-86
2023/12/30 10:44:53;;;;;;;0.77;0.60;;;;;;;;;;5020007;28;20454;-86
2023/12/30 10:47:23;;;;;;;1.20;0.73;;;;;;;;;;5015074;28;20530;-86
2023/12/30 10:49:52;;;;;;;2.90;1.00;;;;;;;;;;5020377;28;20439;-86
2023/12/30 10:52:26;;;;;;;1.88;0.77;;;;;;;;;;5022326;28;20068;-86
2023/12/30 10:55:01;;;;;;;0.70;0.70;;;;;;;;;;5018134;28;20570;-87
2023/12/30 10:57:32;;;;;;;0.73;0.60;;;;;;;;;;5018857;28;20046;-86
2023/12/30 11:00:07;;;;;;;0.52;0.52;;;;;;;;;;5021250;28;20106;-87
2023/12/30 11:02:36;;;;;;;0.60;0.60;;;;;;;;;;5022237;28;20058;-86
2023/12/30 11:05:07;;;;;;;1.98;0.60;;;;;;;;;;5016004;28;20440;-86
2023/12/30 11:07:36;;;;;;;0.80;0.70;;;;;;;;;;5020433;28;20445;-86
2023/12/30 11:10:16;;;;;;;0.85;0.70;;;;;;;;;;5018931;28;20119;-86
2023/12/30 11:12:44;;;;;;;1.50;0.75;;;;;;;;;;5018462;28;20133;-86
2023/12/30 11:15:23;;;;;;;2.58;0.60;;;;;;;;;;5018064;28;20115;-87
2023/12/30 11:17:51;;;;;;;1.13;0.70;;;;;;;;;;5022383;28;20050;-87
2023/12/30 11:20:24;;;;;;;0.82;0.60;;;;;;;;;;5018162;28;20085;-87
2023/12/30 11:22:53;;;;;;;1.65;0.60;;;;;;;;;;5019970;28;20646;-87
2023/12/30 11:25:23;;;;;;;0.77;0.65;;;;;;;;;;5022272;28;20487;-86
2023/12/30 11:27:56;;;;;;;0.50;0.50;;;;;;;;;;5019071;28;20532;-85
2023/12/30 11:30:28;;;;;;;1.58;0.60;;;;;;;;;;5022931;28;20046;-86
2023/12/30 11:32:56;;;;;;;0.68;0.68;;;;;;;;;;5018945;28;20453;-86
2023/12/30 11:35:27;;;;;;;1.65;0.50;;;;;;;;;;5022779;28;20059;-85
2023/12/30 11:37:58;;;;;;;0.65;0.60;;;;;;;;;;5022101;28;20049;-86
2023/12/30 11:40:29;;;;;;;2.17;0.60;;;;;;;;;;5019107;28;20081;-86
2023/12/30 11:42:57;;;;;;;0.50;0.50;;;;;;;;;;5017111;28;20046;-86
2023/12/30 11:45:26;;;;;;;0.68;0.50;;;;;;;;;;5021410;28;20054;-87
2023/12/30 11:47:55;;;;;;;0.52;0.50;;;;;;;;;;5021785;28;20057;-87
2023/12/30 11:50:24;;;;;;;0.50;0.50;;;;;;;;;;5021985;28;20050;-86
2023/12/30 11:52:52;;;;;;;0.50;0.50;;;;;;;;;;5021073;28;20045;-86
2023/12/30 11:55:22;;;;;;;0.85;0.57;;;;;;;;;;5021273;28;20617;-86
2023/12/30 11:57:52;;;;;;;1.17;0.50;;;;;;;;;;5022587;28;20577;-86
2023/12/30 12:00:21;;;;;;;0.60;0.50;;;;;;;;;;5021551;28;20041;-86
2023/12/30 12:02:50;;;;;;;0.52;0.47;;;;;;;;;;5020021;28;20392;-86
2023/12/30 12:05:18;;;;;;;1.00;0.60;;;;;;;;;;5024878;28;20049;-86
2023/12/30 12:07:47;;;;;;;0.60;0.60;;;;;;;;;;5023767;28;20127;-87
2023/12/30 12:10:15;;;;;;;1.77;0.50;;;;;;;;;;5019734;28;20711;-87
2023/12/30 12:12:45;;;;;;;0.50;0.50;;;;;;;;;;5023148;28;20486;-86
2023/12/30 12:15:15;;;;;;;0.40;0.40;;;;;;;;;;5019531;28;20052;-86
2023/12/30 12:17:43;;;;;;;0.45;0.45;;;;;;;;;;5024103;28;20075;-86
2023/12/30 12:20:12;;;;;;;0.40;0.40;;;;;;;;;;5025640;28;20053;-86
2023/12/30 12:22:41;;;;;;;1.75;0.60;;;;;;;;;;5024380;28;20495;-86
2023/12/30 12:25:10;;;;;;;0.47;0.47;;;;;;;;;;5024903;28;20045;-88
2023/12/30 12:27:38;;;;;;;1.10;0.50;;;;;;;;;;5022265;28;20108;-87
2023/12/30 12:30:09;;;;;;;0.38;0.38;;;;;;;;;;5018761;28;20064;-86
2023/12/30 12:32:39;;;;;;;0.43;0.40;;;;;;;;;;5024649;28;20057;-85
2023/12/30 12:35:07;;;;;;;0.45;0.45;;;;;;;;;;5021007;28;20064;-87
2023/12/30 12:37:37;;;;;;;0.50;0.50;;;;;;;;;;5019604;28;20060;-87
2023/12/30 12:40:10;;;;;;;0.52;0.47;;;;;;;;;;5020051;28;20050;-87
2023/12/30 12:42:39;;;;;;;1.40;0.50;;;;;;;;;;5022483;28;20515;-86
2023/12/30 12:45:09;;;;;;;0.52;0.50;;;;;;;;;;5020539;28;20073;-86
2023/12/30 12:47:39;;;;;;;0.75;0.63;;;;;;;;;;5020831;28;20056;-86
2023/12/30 12:50:08;;;;;;;0.43;0.43;;;;;;;;;;5017895;28;20049;-86
2023/12/30 12:52:36;;;;;;;1.23;0.50;;;;;;;;;;5019485;28;20054;-87
2023/12/30 12:55:05;;;;;;;0.90;0.65;;;;;;;;;;5025479;28;20091;-86
2023/12/30 12:57:34;;;;;;;0.80;0.60;;;;;;;;;;5019057;28;20514;-86
2023/12/30 13:00:06;;;;;;;0.40;0.40;;;;;;;;;;5025020;28;20557;-87
2023/12/30 13:02:35;;;;;;;0.57;0.50;;;;;;;;;;5018002;28;20058;-86
2023/12/30 13:05:05;;;;;;;1.27;0.70;;;;;;;;;;5021553;28;20095;-87
2023/12/30 13:07:34;;;;;;;0.70;0.70;;;;;;;;;;5023572;28;20050;-86
2023/12/30 13:10:17;;;;;;;0.88;0.52;;;;;;;;;;5024047;28;20450;-86
2023/12/30 13:12:46;;;;;;;1.08;0.65;;;;;;;;;;5025300;28;20050;-87
2023/12/30 13:15:19;;;;;;;0.80;0.55;;;;;;;;;;5024019;28;20077;-87
2023/12/30 13:17:47;;;;;;;0.50;0.50;;;;;;;;;;5017535;28;20176;-86
2023/12/30 13:20:18;;;;;;;0.55;0.50;;;;;;;;;;5018431;28;20042;-86
2023/12/30 13:22:49;;;;;;;0.82;0.50;;;;;;;;;;5017105;28;20049;-86
2023/12/30 13:25:17;;;;;;;0.57;0.57;;;;;;;;;;5022718;28;20136;-86
2023/12/30 13:27:45;;;;;;;1.05;0.80;;;;;;;;;;5023432;28;20087;-87
2023/12/30 13:30:17;;;;;;;0.60;0.60;;;;;;;;;;5021747;28;20450;-86
2023/12/30 13:32:47;;;;;;;1.20;0.70;;;;;;;;;;5016863;28;20077;-86
2023/12/30 13:35:17;;;;;;;0.52;0.52;;;;;;;;;;5017969;28;20101;-86
2023/12/30 13:37:47;;;;;;;0.70;0.60;;;;;;;;;;5016767;28;20041;-86
2023/12/30 13:40:17;;;;;;;0.60;0.60;;;;;;;;;;5017083;28;20053;-86
2023/12/30 13:42:45;;;;;;;1.05;0.70;;;;;;;;;;5022636;28;20501;-87
2023/12/30 13:45:14;;;;;;;0.75;0.70;;;;;;;;;;5018716;28;20077;-86
2023/12/30 13:48:22;;;;;;;1.05;0.60;;;;;;;;;;5020533;28;20112;-86
2023/12/30 13:50:49;;;;;;;0.70;0.70;;;;;;;;;;5015701;28;20554;-87
2023/12/30 13:53:23;;;;;;;0.75;0.75;;;;;;;;;;5022410;28;20042;-87
2023/12/30 13:55:53;;;;;;;0.90;0.80;;;;;;;;;;5021616;28;20430;-86
2023/12/30 13:58:21;;;;;;;1.00;0.65;;;;;;;;;;5023835;28;20046;-86
2023/12/30 14:00:49;;;;;;;0.70;0.60;;;;;;;;;;5023228;28;20431;-87
2023/12/30 14:03:18;;;;;;;2.05;0.68;;;;;;;;;;5017410;28;20045;-86
2023/12/30 14:05:48;;;;;;;1.02;0.70;;;;;;;;;;5023114;28;20053;-86
2023/12/30 14:08:23;;;;;;;1.20;0.90;;;;;;;;;;5016123;28;20050;-86
2023/12/30 14:10:53;;;;;;;0.50;0.50;;;;;;;;;;5016607;28;20054;-86
2023/12/30 14:13:23;;;;;;;0.80;0.55;;;;;;;;;;5016999;28;20052;-87
2023/12/30 14:15:52;;;;;;;0.77;0.77;;;;;;;;;;5024340;28;20053;-86
2023/12/30 14:18:20;;;;;;;0.70;0.65;;;;;;;;;;5021943;28;20045;-86
2023/12/30 14:20:50;;;;;;;0.63;0.60;;;;;;;;;;5016664;28;20561;-86
2023/12/30 14:23:19;;;;;;;0.73;0.73;;;;;;;;;;5018893;28;20049;-86
2023/12/30 14:25:47;;;;;;;0.60;0.57;;;;;;;;;;5022977;28;20041;-86
2023/12/30 14:28:16;;;;;;;1.23;0.80;;;;;;;;;;5022884;28;20049;-87
2023/12/30 14:30:45;;;;;;;0.57;0.50;;;;;;;;;;5021755;28;20092;-86
2023/12/30 14:33:13;;;;;;;0.68;0.60;;;;;;;;;;5022305;28;20048;-86
2023/12/30 14:35:42;;;;;;;0.85;0.70;;;;;;;;;;5022823;28;20100;-87
2023/12/30 14:38:12;;;;;;;0.82;0.70;;;;;;;;;;5015226;28;20124;-86
2023/12/30 14:40:40;;;;;;;0.77;0.70;;;;;;;;;;5019868;28;20049;-86
2023/12/30 14:43:09;;;;;;;0.55;0.55;;;;;;;;;;5017613;28;20100;-85
2023/12/30 14:45:38;;;;;;;0.60;0.60;;;;;;;;;;5019958;28;20041;-86
2023/12/30 14:48:07;;;;;;;0.98;0.80;;;;;;;;;;5019667;28;20045;-86
2023/12/30 14:50:35;;;;;;;0.80;0.75;;;;;;;;;;5020251;28;20388;-86
2023/12/30 14:53:04;;;;;;;0.90;0.68;;;;;;;;;;5016299;28;20046;-86
2023/12/30 14:55:34;;;;;;;1.02;0.70;;;;;;;;;;5021974;28;20402;-86